Terminal Aerodrome Forecast
Issued by NWS

Home | Current Version | Previous Version | Text Only | Print | Product List | Glossary On
Versions: 1 2 3 4 5 6 7 8 9 10 11 12 13 14
214
FTUS46 KPDT 081120
TAFPSC
TAF
KPSC 081120Z 0812/0912 34005KT P6SM SCT250
      TEMPO 0814/0818 5SM BR SCT015 BKN250
     FM090300 34005KT P6SM SCT250
      TEMPO 0908/0912 4SM BR SCT015 BKN250=

USA.gov is the U.S. government's official web portal to all federal, state and local government web resources and services.